Latest Weather Observations for Hogan Island

IDV60801

Issued at 12:02 pm EDT Wednesday 1 April 2015 (issued every 30 minutes, with the page automatically refreshed every 10 minutes)

About weather observations | Map of weather stations | Latest weather observations for VIC | Other Formats
Station Details ID: 200838 Name: HOGAN ISLAND Lat: -39.22 Lon: 146.98 Height: 116.0 m
Data from the previous 72 hours. | See also: Recent months at Hogan Island
Date/Time
EDT
Temp
°C
App
Temp
°C
Dew
Point
Rel
Hum
%
Delta-T
°C
Wind Press
QNH
hPa
Press
MSL
hPa
Rain
since 9 am
mm
Dir
 
Spd
km/h
Gust
km/h
Spd
kts
Gust
kts
01/12:00pm 20.9 17.2 11.5 55 5.2 N 22 30 12 16 1017.1 1017.0 0.0
01/11:30am 20.9 17.0 12.1 57 4.9 N 24 30 13 16 1017.6 - 0.0
01/11:00am 21.4 18.6 15.3 68 3.6 N 24 32 13 17 1017.8 - 0.0
01/10:30am 19.8 19.2 18.5 92 0.8 N 19 28 10 15 1018.3 - 0.0
01/10:00am 18.8 18.0 18.1 96 0.4 N 19 24 10 13 1018.7 - 0.0
01/09:30am 17.4 16.1 16.8 96 0.4 NNE 19 22 10 12 1018.9 - 0.0
01/09:00am 17.1 15.7 16.6 97 0.3 NNE 19 22 10 12 1018.9 1018.9 0.0
01/08:30am 16.6 15.4 16.1 97 0.3 NNE 17 20 9 11 1019.0 - 0.0
01/08:00am 16.6 15.0 16.1 97 0.3 NNE 19 20 10 11 1019.0 - 0.0
01/07:30am 16.4 14.7 15.8 96 0.4 NNE 19 20 10 11 1019.1 - 0.0
01/07:00am 16.4 14.5 15.8 96 0.4 NE 20 22 11 12 1019.0 - 0.0
01/06:30am 16.6 14.8 16.0 96 0.4 NE 20 24 11 13 1019.1 - 0.0
01/06:00am 16.4 14.5 15.8 96 0.4 NE 20 22 11 12 1019.1 1019.1 0.0
01/05:30am 16.4 14.5 15.8 96 0.4 NE 20 24 11 13 1019.2 - 0.0
01/05:00am 16.3 14.4 15.7 96 0.4 NE 20 24 11 13 1019.3 - 0.0
01/04:30am 16.6 15.0 16.0 96 0.4 NE 19 20 10 11 1019.6 - 0.0
01/04:00am 16.4 15.4 15.6 95 0.5 ENE 15 17 8 9 1020.1 - 0.0
01/03:30am 16.0 14.9 15.2 95 0.5 ENE 15 17 8 9 1020.4 - 0.0
01/03:00am 15.8 15.0 15.0 95 0.5 ENE 13 15 7 8 1020.9 1020.8 0.0
01/02:30am 16.0 15.2 15.0 94 0.6 NE 13 15 7 8 1021.5 - 0.0
01/02:00am 15.9 15.0 14.9 94 0.6 NE 13 15 7 8 1021.9 - 0.0
01/01:30am 15.8 14.1 14.8 94 0.6 NE 17 19 9 10 1022.1 - 0.0
01/01:00am 15.8 13.7 14.7 93 0.6 NE 19 20 10 11 1022.4 - 0.0
01/12:30am 15.7 13.6 14.6 93 0.6 NE 19 20 10 11 1022.6 - 0.0
01/12:00am 15.7 13.5 14.4 92 0.7 NE 19 20 10 11 1023.1 1023.0 0.0
 
Date/Time
EDT
Temp
°C
App
Temp
°C
Dew
Point
Rel
Hum
%
Delta-T
°C
Wind Press
QNH
hPa
Press
MSL
hPa
Rain
since 9 am
mm
Dir
 
Spd
km/h
Gust
km/h
Spd
kts
Gust
kts
31/11:30pm 15.7 13.2 14.2 91 0.9 NE 20 22 11 12 1023.2 - 0.0
31/11:00pm 15.8 13.3 14.2 90 0.9 NE 20 24 11 13 1023.4 - 0.0
31/10:30pm 15.7 13.1 13.9 89 1.0 NE 20 24 11 13 1023.7 - 0.0
31/10:00pm 15.7 12.3 13.7 88 1.1 NE 24 26 13 14 1023.6 - 0.0
31/09:30pm 15.8 12.4 13.8 88 1.1 NE 24 28 13 15 1023.6 - 0.0
31/09:00pm 15.5 12.4 13.5 88 1.1 NE 22 28 12 15 1023.7 1023.5 0.0
31/08:30pm 15.6 12.1 13.4 87 1.2 ENE 24 26 13 14 1023.7 - 0.0
31/08:00pm 15.4 12.5 12.9 85 1.4 ENE 20 22 11 12 1023.8 - 0.0
31/07:30pm 15.3 12.4 12.4 83 1.6 ENE 19 20 10 11 1023.7 - 0.0
31/07:00pm 15.6 13.1 12.4 81 1.8 E 17 20 9 11 1023.5 - 0.0
31/06:30pm 16.2 14.1 12.4 78 2.1 E 15 17 8 9 1023.7 - 0.0
31/06:00pm 17.3 15.4 13.0 76 2.4 E 15 17 8 9 1023.6 1023.4 0.0
31/05:30pm 17.6 15.6 12.7 73 2.7 E 15 17 8 9 1023.6 - 0.0
31/05:00pm 18.2 16.3 13.1 72 2.9 ENE 15 17 8 9 1023.8 - 0.0
31/04:30pm 18.7 16.9 13.3 71 3.1 ENE 15 19 8 10 1023.7 - 0.0
31/04:00pm 18.8 17.7 13.0 69 3.3 ENE 11 15 6 8 1024.3 - 0.0
31/03:30pm 18.8 17.6 12.8 68 3.4 ENE 11 17 6 9 1024.2 - 0.0
31/03:00pm 19.2 17.9 12.5 65 3.8 NNE 11 17 6 9 1024.4 1024.2 0.0
31/02:30pm 19.7 17.8 11.7 60 4.4 N 13 20 7 11 1024.5 - 0.0
31/02:00pm 21.1 19.4 12.5 58 4.9 N 13 19 7 10 1024.9 - 0.0
31/01:30pm 20.7 18.5 13.2 62 4.3 N 17 20 9 11 1025.2 - 0.0
31/01:00pm 19.6 17.3 13.1 66 3.7 N 17 24 9 13 1025.6 - 0.0
31/12:30pm 19.5 17.1 12.7 65 3.8 N 17 22 9 12 1025.9 - 0.0
31/12:00pm 19.2 17.5 12.5 65 3.7 N 13 17 7 9 1026.4 1026.3 0.0
31/11:30am 18.9 17.7 14.0 73 2.8 NNW 13 15 7 8 1026.9 - 0.0
31/11:00am 18.3 17.4 13.6 74 2.7 WNW 11 13 6 7 1027.1 - 0.0
31/10:30am 18.0 17.4 13.5 75 2.6 NW 9 11 5 6 1027.1 - 0.0
31/10:00am 17.3 17.2 13.8 80 2.0 WNW 7 9 4 5 1027.2 - 0.0
31/09:30am 17.2 17.3 14.5 84 1.6 W 7 9 4 5 1027.1 - 0.0
31/09:00am 16.4 16.0 14.2 87 1.3 W 9 9 5 5 1027.0 1026.9 0.0
31/08:30am 15.3 14.3 13.5 89 1.0 W 11 13 6 7 1026.8 - 0.0
31/08:00am 14.7 13.6 13.1 90 0.9 WNW 11 13 6 7 1026.4 - 0.0
31/07:30am 14.3 13.1 12.9 91 0.8 WNW 11 11 6 6 1026.0 - 0.0
31/07:00am 14.1 13.2 12.7 91 0.8 NW 9 11 5 6 1025.9 - 0.0
31/06:30am 14.4 13.6 13.0 91 0.8 NNW 9 13 5 7 1025.7 - 0.0
31/06:00am 14.5 12.9 12.9 90 0.9 NW 13 15 7 8 1025.5 1025.4 0.0
31/05:30am 14.8 12.6 13.2 90 0.9 NW 17 20 9 11 1025.5 - 0.0
31/05:00am 14.8 12.2 13.2 90 0.9 NW 19 24 10 13 1025.3 - 0.0
31/04:30am 14.8 12.0 13.2 90 0.9 NW 20 30 11 16 1025.3 - 0.0
31/04:00am 15.1 12.0 13.3 89 1.0 NW 22 28 12 15 1025.3 - 0.0
31/03:30am 15.2 12.5 13.4 89 1.0 NNW 20 24 11 13 1025.4 - 0.0
31/03:00am 15.1 13.2 13.1 88 1.1 NW 15 19 8 10 1025.6 1025.5 0.0
31/02:30am 15.3 12.5 13.3 88 1.1 WNW 20 22 11 12 1025.7 - 0.0
31/02:00am 15.0 12.2 13.2 89 1.0 WNW 20 26 11 14 1025.9 - 0.0
31/01:30am 15.2 13.1 13.6 90 0.9 W 17 20 9 11 1025.9 - 0.0
31/01:00am 15.4 12.8 13.8 90 0.9 W 20 24 11 13 1026.0 - 0.0
31/12:30am 15.2 12.7 13.6 90 0.9 W 19 22 10 12 1025.9 - 0.0
31/12:00am 15.2 12.5 13.4 89 1.0 W 20 22 11 12 1026.1 1026.0 0.0
 
Date/Time
EDT
Temp
°C
App
Temp
°C
Dew
Point
Rel
Hum
%
Delta-T
°C
Wind Press
QNH
hPa
Press
MSL
hPa
Rain
since 9 am
mm
Dir
 
Spd
km/h
Gust
km/h
Spd
kts
Gust
kts
30/11:30pm 15.1 12.0 13.3 89 1.0 W 22 28 12 15 1026.2 - 0.0
30/11:00pm 15.3 11.8 13.5 89 1.0 W 24 30 13 16 1026.3 - 0.0
30/10:30pm 15.4 11.5 13.4 88 1.1 W 26 28 14 15 1026.2 - 0.0
30/10:00pm 15.5 12.0 13.5 88 1.1 W 24 30 13 16 1026.1 - 0.0
30/09:30pm 15.3 12.2 13.3 88 1.1 W 22 26 12 14 1026.0 - 0.0
30/09:00pm 15.3 11.3 13.1 87 1.2 W 26 30 14 16 1025.9 1025.8 0.0
30/08:30pm 15.5 11.2 13.3 87 1.2 WSW 28 32 15 17 1025.6 - 0.0
30/08:00pm 15.4 11.5 13.2 87 1.2 WSW 26 30 14 16 1025.3 - 0.0
30/07:30pm 15.6 11.3 13.1 85 1.4 W 28 32 15 17 1024.9 - 0.0
30/07:00pm 15.9 12.0 13.2 84 1.5 W 26 32 14 17 1024.6 - 0.0
30/06:30pm 16.6 12.8 13.7 83 1.6 WSW 26 30 14 16 1024.3 - 0.0
30/06:00pm 16.8 11.8 13.3 80 2.0 WSW 32 37 17 20 1023.9 1023.7 0.0
30/05:30pm 17.7 12.1 13.2 75 2.5 WSW 35 41 19 22 1023.5 - 0.0
30/05:00pm 18.2 12.3 13.5 74 2.7 WSW 37 43 20 23 1023.4 - 0.0
30/04:30pm 18.5 12.5 13.4 72 2.9 WSW 37 43 20 23 1023.3 - 0.0
30/04:00pm 19.0 13.5 13.6 71 3.1 W 35 41 19 22 1023.3 - 0.0
30/03:30pm 19.2 13.6 13.4 69 3.3 W 35 41 19 22 1023.4 - 0.0
30/03:00pm 19.6 13.8 13.8 69 3.3 W 37 41 20 22 1023.4 1023.2 0.0
30/02:30pm 19.2 13.8 14.0 72 3.0 W 35 41 19 22 1023.6 - 0.0
30/02:00pm 19.3 13.5 13.9 71 3.1 W 37 41 20 22 1023.7 - 0.0
30/01:30pm 19.2 13.7 13.6 70 3.2 W 35 41 19 22 1023.9 - 0.0
30/01:00pm 19.0 13.9 13.6 71 3.1 W 33 37 18 20 1024.0 - 0.0
30/12:30pm 18.8 13.8 13.4 71 3.1 W 32 35 17 19 1024.2 - 0.0
30/12:00pm 18.7 14.0 13.1 70 3.2 W 30 35 16 19 1024.3 1024.1 0.0
30/11:30am 18.3 13.2 13.2 72 2.9 W 32 37 17 20 1024.3 - 0.0
30/11:00am 17.8 13.0 12.9 73 2.8 W 30 35 16 19 1024.5 - 0.0
30/10:30am 17.3 14.0 12.8 75 2.5 WNW 22 28 12 15 1024.4 - 0.0
30/10:00am 16.5 11.5 12.3 76 2.3 W 30 35 16 19 1024.1 - 0.0
30/09:30am 16.4 12.3 12.6 78 2.1 WNW 26 32 14 17 1023.9 - 0.0
30/09:00am 16.0 12.2 12.4 79 2.0 W 24 30 13 16 1023.6 1023.4 0.0
30/08:30am 15.5 11.2 12.1 80 1.9 WNW 26 30 14 16 1023.4 - 0.0
30/08:00am 15.2 11.3 12.0 81 1.7 WNW 24 30 13 16 1023.2 - 0.0
30/07:30am 14.9 10.6 11.9 82 1.6 WNW 26 30 14 16 1022.8 - 0.0
30/07:00am 14.9 10.9 11.9 82 1.6 WNW 24 32 13 17 1022.7 - 0.0
30/06:30am 14.8 10.5 11.9 83 1.6 WNW 26 32 14 17 1022.4 - 0.0
30/06:00am 14.9 10.7 12.4 85 1.4 WNW 26 32 14 17 1022.2 1022.0 0.0
30/05:30am 14.9 10.3 12.4 85 1.4 WNW 28 33 15 18 1022.1 - 0.0
30/05:00am 14.8 10.3 12.5 86 1.3 WNW 28 32 15 17 1022.1 - 0.0
30/04:30am 14.8 10.3 12.7 87 1.2 WNW 28 32 15 17 1022.1 - 0.0
30/04:00am 14.8 9.6 12.7 87 1.2 WNW 32 35 17 19 1022.2 - 0.0
30/03:30am 14.8 9.9 12.5 86 1.3 WNW 30 35 16 19 1022.4 - 0.0
30/03:00am 14.8 10.6 12.3 85 1.4 WNW 26 32 14 17 1022.6 1022.4 0.0
30/02:30am 14.8 11.2 11.9 83 1.6 NW 22 28 12 15 1022.7 - 0.0
30/02:00am 15.0 11.5 12.3 84 1.5 WNW 22 28 12 15 1022.7 - 0.0
30/01:30am 15.0 11.5 12.1 83 1.6 NW 22 33 12 18 1022.8 - 0.0
30/01:00am 15.3 11.1 12.4 83 1.6 WNW 26 32 14 17 1022.8 - 0.0
30/12:30am 15.3 11.1 12.4 83 1.6 WNW 26 30 14 16 1022.9 - 0.0
30/12:00am 15.4 11.6 12.5 83 1.6 WNW 24 32 13 17 1023.1 1022.9 0.0
 
Date/Time
EDT
Temp
°C
App
Temp
°C
Dew
Point
Rel
Hum
%
Delta-T
°C
Wind Press
QNH
hPa
Press
MSL
hPa
Rain
since 9 am
mm
Dir
 
Spd
km/h
Gust
km/h
Spd
kts
Gust
kts
29/11:30pm 15.2 9.8 12.3 83 1.6 W 32 35 17 19 1023.1 - 0.0
29/11:00pm 15.2 10.2 12.1 82 1.7 W 30 33 16 18 1023.2 - 0.0
29/10:30pm 15.2 10.1 12.0 81 1.7 W 30 35 16 19 1022.9 - 0.0
29/10:00pm 15.2 10.0 11.6 79 1.9 W 30 35 16 19 1022.8 - 0.0
29/09:30pm 15.1 9.9 11.7 80 1.8 W 30 33 16 18 1022.7 - 0.0
29/09:00pm 15.2 9.7 12.0 81 1.7 W 32 39 17 21 1022.4 1022.2 0.0
29/08:30pm 15.2 9.1 11.6 79 1.9 WSW 35 39 19 21 1022.1 - 0.0
29/08:00pm 15.3 8.7 11.5 78 2.1 W 37 44 20 24 1021.8 - 0.0
29/07:30pm 15.4 8.0 11.2 76 2.3 W 41 44 22 24 1021.3 - 0.0
29/07:00pm 15.7 7.9 11.1 74 2.5 W 43 50 23 27 1021.0 - 0.0
29/06:30pm 16.2 7.8 10.9 71 2.8 W 46 52 25 28 1020.7 - 0.0
29/06:00pm 16.9 9.0 10.7 67 3.3 W 43 48 23 26 1020.5 1020.3 0.0
29/05:30pm 17.5 10.0 10.9 65 3.6 W 41 48 22 26 1020.7 - 0.0
29/05:00pm 17.7 10.2 11.0 65 3.6 W 41 46 22 25 1020.7 - 0.0
29/04:30pm 18.2 11.0 10.6 61 4.1 W 39 46 21 25 1020.6 - 0.0
29/04:00pm 18.1 10.5 10.5 61 4.1 W 41 46 22 25 1020.7 - 0.0
29/03:30pm 18.7 11.3 11.3 62 4.1 W 41 48 22 26 1020.7 - 0.0
29/03:00pm 18.4 10.5 11.5 64 3.8 W 44 50 24 27 1020.8 1020.6 0.0
29/02:30pm 18.3 10.6 11.4 64 3.8 W 43 48 23 26 1020.8 - 0.0
29/02:00pm 18.6 12.0 11.2 62 4.1 W 37 43 20 23 1021.1 - 0.0
29/01:30pm 18.6 12.1 11.7 64 3.8 W 37 43 20 23 1021.2 - 0.0
29/01:00pm 17.8 11.6 11.4 66 3.5 W 35 43 19 23 1021.5 - 0.0
29/12:30pm 16.9 10.4 10.5 66 3.4 WNW 35 41 19 22 1021.6 - 0.0

Other Formats:

Comma delimited format used in spreadsheet applications
http://www.bom.gov.au/fwo/IDV60801/IDV60801.94949.axf

JavaScript Object Notation format (JSON) in row-major order
http://www.bom.gov.au/fwo/IDV60801/IDV60801.94949.json